Woodbine, Iowa
Current Conditions -  °F | °C
As of 12:55 AM on Thursday 27 Nov 2014 (Local Time) from KHNR Reporting Station
Overcast Overcast  
Wind Chill: -1°   Ceiling: 7000
Heat Index: 14°   Visibility: 10mi
Dew Point:   Wind: 14mph
Humidity: 79%   Direction: 350°N
Pressure: 30.48"   Gusts: 21mph
Location:  41.74°N, 95.7°W
Report Text: KHNR 270655Z AUTO 35012G18KT 10SM OVC070 M10/M13 A3048 RMK AO2
Loading
Personal Weather Stations






























Interactive Weather Map New forecast layout! Learn more

10-Day Weather Forecast

Advertisements
Track Severe Weather on mobile